Mazatlan - G. Buelna, Mexico

11:56 AM MST on January 26, 2015 (GMT -0700)
Gen Rafael Buelna International | Change Station
CLOSE
Current Station
Airport
Location: Mazatlan Airport,
Elevation: 33 ft
Nearby Weather Stations

Elev 33 ft 23.16 °N, 106.27 °W | Updated 9 minutes ago

Overcast
Overcast
79 °F
Feels Like 79 °F
N
9
Wind Variable Wind from West

Today
High -- | Low -- °F
--% Chance of Precip.
Yesterday
High -- | Low -- °F
Precip. -- in
6:47 AM 5:48 PM
Waxing Crescent, 45% visible
Pressure 30.00 in
Visibility 15.0 miles
Clouds Scattered Clouds 4000 ft
Mostly Cloudy 8000 ft
Overcast 12000 ft
Dew Point 63 °F
Humidity 57%
Rainfall 0.00 in
Snow Depth Not available.
UV 2 out of 12
Pollen Not available.
Air Quality Not available.
Flu Activity Not available.
METAR MMMZ 261847Z 26008KT 15SM SCT040 BKN080 OVC120 26/17 A3000 RMK 8/47/ BINOVC

More Conditions Fewer Conditions

Pressure 30.00 in
Visibility 15.0 miles
Clouds Scattered Clouds 4000 ft
Mostly Cloudy 8000 ft
Overcast 12000 ft
Dew Point 63 °F
Humidity 57%
Rainfall 0.00 in
Snow Depth Not available.
UV 2 out of 12
Pollen Not available.
Air Quality Not available.
Flu Activity Not available.
METAR MMMZ 261847Z 26008KT 15SM SCT040 BKN080 OVC120 26/17 A3000 RMK 8/47/ BINOVC

More Conditions Fewer Conditions

10-Day Weather Forecast

Almanac

Astronomy

Jan. 26, 2015 Rise Set
Actual Time
Civil Twilight
Nautical Twilight
Astronomical Twilight
Moon
Length of Visible Light
Length of Day
Tomorrow will be .
, % of the Moon is Illuminated

Today's Extremes

Country Highs Country Lows

Community

WunderPhotos

Upload Photos

1,790,312 photos uploaded!

WunderBlogs® & News

Nearby

Air Quality

  Air Quality AQ Index Pollutant
Not available.

Snow Depth

Station Depth Elevation

Earthquake Activity

City Distance Mag. Time & Date
Minimum magnitude displayed is 2.5.

Coastal Water Temperatures

Place Temperature

Nearby Weather Stations